Pine Creek, Pennsylvania
Current Conditions -  °F | °C
As of 10:15 PM on Wednesday 22 Oct 2014 (Local Time) from KN38 Reporting Station
Overcast Overcast  
Wind Chill: 34°   Ceiling: 500
Heat Index: 43°   Visibility: 7mi
Dew Point: 41°   Wind: 23mph
Humidity: 93%   Direction: 360°N
Pressure: 30.07"   Gusts: NA
Location:  41.4373°N, 77.4136°W
Report Text: KN38 230215Z AUTO 36020KT 7SM OVC005 06/05 A3007 RMK AO2
Loading
Personal Weather Stations






























Interactive Weather Map
Tropical Storm Tracking
New forecast layout! Learn more

10-Day Weather Forecast

Advertisements
Track Severe Weather on mobile